Time,TemperatureF,DewpointF,PressureIn,WindDirection,WindDirectionDegrees,WindSpeedMPH,WindSpeedGustMPH,Humidity,HourlyPrecipIn,Conditions,Clouds,dailyrainin,SoftwareType,DateUTC
2013-10-20 00:00:00,45.8,40.9,29.99,SSW,202,0.0,0.0,83,0.00,,,0.00,Wunderground v.1.15,2013-10-20 05:00:00,
2013-10-20 00:10:00,45.4,40.8,29.99,SSW,202,0.0,0.0,84,0.00,,,0.00,Wunderground v.1.15,2013-10-20 05:10:00,
2013-10-20 00:15:00,45.3,41.1,29.99,SSW,202,0.0,0.0,85,0.00,,,0.00,Wunderground v.1.15,2013-10-20 05:15:00,
2013-10-20 00:20:00,45.3,41.1,29.99,SSW,202,0.0,0.0,85,0.00,,,0.00,Wunderground v.1.15,2013-10-20 05:20:00,
2013-10-20 00:25:00,45.3,41.1,29.99,SSW,202,0.0,0.0,85,0.00,,,0.00,Wunderground v.1.15,2013-10-20 05:25:00,
2013-10-20 00:30:00,45.4,41.2,29.99,SSW,200,0.0,0.0,85,0.00,,,0.00,Wunderground v.1.15,2013-10-20 05:30:00,
2013-10-20 00:35:00,45.3,41.1,29.99,SSW,201,0.0,0.0,85,0.00,,,0.00,Wunderground v.1.15,2013-10-20 05:35:00,
2013-10-20 00:40:00,45.0,40.5,29.99,SSW,201,0.0,0.0,84,0.00,,,0.00,Wunderground v.1.15,2013-10-20 05:40:00,
2013-10-20 00:50:00,44.3,40.4,29.99,SSW,201,0.0,0.0,86,0.00,,,0.00,Wunderground v.1.15,2013-10-20 05:50:00,
2013-10-20 00:55:00,44.4,40.5,29.99,SSW,199,0.0,0.0,86,0.00,,,0.00,Wunderground v.1.15,2013-10-20 05:55:00,
2013-10-20 01:00:00,44.6,40.7,29.98,SSW,199,0.0,0.0,86,0.00,,,0.00,Wunderground v.1.15,2013-10-20 06:00:00,
2013-10-20 01:10:00,44.5,40.6,29.98,SSW,199,0.0,0.0,86,0.00,,,0.00,Wunderground v.1.15,2013-10-20 06:10:00,
2013-10-20 01:15:00,44.5,40.6,29.98,SSW,198,0.0,0.0,86,0.00,,,0.00,Wunderground v.1.15,2013-10-20 06:15:00,
2013-10-20 01:20:00,44.5,40.6,29.99,SSW,198,0.0,0.0,86,0.00,,,0.00,Wunderground v.1.15,2013-10-20 06:20:00,
2013-10-20 01:25:00,44.5,40.6,29.98,SSW,198,0.0,0.0,86,0.00,,,0.00,Wunderground v.1.15,2013-10-20 06:25:00,
2013-10-20 01:35:00,44.2,40.6,29.98,SSW,198,0.0,0.0,87,0.00,,,0.00,Wunderground v.1.15,2013-10-20 06:35:00,
2013-10-20 01:40:00,44.2,40.6,29.98,SSW,198,0.0,0.0,87,0.00,,,0.00,Wunderground v.1.15,2013-10-20 06:40:00,
2013-10-20 01:45:00,44.0,40.4,29.98,SSW,198,0.0,0.0,87,0.00,,,0.00,Wunderground v.1.15,2013-10-20 06:45:00,
2013-10-20 01:50:00,43.9,40.3,29.98,SSW,198,0.0,0.0,87,0.00,,,0.00,Wunderground v.1.15,2013-10-20 06:50:00,
2013-10-20 02:00:00,43.9,40.3,29.98,SSW,198,0.0,0.0,87,0.00,,,0.00,Wunderground v.1.15,2013-10-20 07:00:00,
2013-10-20 02:10:00,43.9,40.3,29.98,SSW,198,0.0,0.0,87,0.00,,,0.00,Wunderground v.1.15,2013-10-20 07:10:00,
2013-10-20 02:15:00,43.9,40.3,29.98,SSW,198,0.0,0.0,87,0.00,,,0.00,Wunderground v.1.15,2013-10-20 07:15:00,
2013-10-20 02:25:00,43.7,40.1,29.98,SSW,198,0.0,0.0,87,0.00,,,0.00,Wunderground v.1.15,2013-10-20 07:25:00,
2013-10-20 02:30:00,43.5,39.9,29.97,SSW,198,0.0,0.0,87,0.00,,,0.00,Wunderground v.1.15,2013-10-20 07:30:00,
2013-10-20 02:35:00,43.5,40.2,29.97,SSW,198,0.0,0.0,88,0.00,,,0.00,Wunderground v.1.15,2013-10-20 07:35:00,
2013-10-20 02:40:00,43.4,40.1,29.97,SSW,198,0.0,0.0,88,0.00,,,0.00,Wunderground v.1.15,2013-10-20 07:40:00,
2013-10-20 02:45:00,43.2,39.9,29.97,SSW,198,0.0,0.0,88,0.00,,,0.00,Wunderground v.1.15,2013-10-20 07:45:00,
2013-10-20 02:50:00,43.1,39.8,29.97,SSW,198,0.0,0.0,88,0.00,,,0.00,Wunderground v.1.15,2013-10-20 07:50:00,
2013-10-20 03:00:00,42.9,39.6,29.97,SSW,198,0.0,0.0,88,0.00,,,0.00,Wunderground v.1.15,2013-10-20 08:00:00,
2013-10-20 03:10:00,42.9,39.6,29.97,SSW,198,0.0,0.0,88,0.00,,,0.00,Wunderground v.1.15,2013-10-20 08:10:00,
2013-10-20 03:20:00,42.8,39.5,29.96,SSW,198,0.0,0.0,88,0.00,,,0.00,Wunderground v.1.15,2013-10-20 08:20:00,
2013-10-20 03:25:00,42.9,39.9,29.96,SSW,198,0.0,0.0,89,0.00,,,0.00,Wunderground v.1.15,2013-10-20 08:25:00,
2013-10-20 03:30:00,42.8,39.8,29.96,SSW,198,0.0,0.0,89,0.00,,,0.00,Wunderground v.1.15,2013-10-20 08:30:00,
2013-10-20 03:35:00,42.7,39.7,29.96,SSW,198,0.0,0.0,89,0.00,,,0.00,Wunderground v.1.15,2013-10-20 08:35:00,
2013-10-20 03:40:00,42.7,39.7,29.95,SSW,198,0.0,0.0,89,0.00,,,0.00,Wunderground v.1.15,2013-10-20 08:40:00,
2013-10-20 03:45:00,42.6,39.6,29.95,SSW,198,0.0,0.0,89,0.00,,,0.00,Wunderground v.1.15,2013-10-20 08:45:00,
2013-10-20 03:50:00,42.5,39.5,29.95,SSW,198,0.0,0.0,89,0.00,,,0.00,Wunderground v.1.15,2013-10-20 08:50:00,
2013-10-20 03:55:00,42.5,39.5,29.95,SSW,198,0.0,0.0,89,0.00,,,0.00,Wunderground v.1.15,2013-10-20 08:55:00,
2013-10-20 04:10:00,42.2,39.2,29.95,SSW,197,0.0,0.0,89,0.00,,,0.00,Wunderground v.1.15,2013-10-20 09:10:00,
2013-10-20 04:20:00,42.2,39.2,29.94,SSW,197,0.0,0.0,89,0.00,,,0.00,Wunderground v.1.15,2013-10-20 09:20:00,
2013-10-20 04:25:00,42.1,39.1,29.94,SSW,196,0.0,0.0,89,0.00,,,0.00,Wunderground v.1.15,2013-10-20 09:25:00,
2013-10-20 04:30:00,42.0,39.0,29.94,SSW,197,0.0,0.0,89,0.00,,,0.00,Wunderground v.1.15,2013-10-20 09:30:00,
2013-10-20 04:35:00,42.0,39.0,29.94,SSW,197,0.0,0.0,89,0.00,,,0.00,Wunderground v.1.15,2013-10-20 09:35:00,
2013-10-20 04:40:00,41.9,38.9,29.95,SSW,197,0.0,0.0,89,0.00,,,0.00,Wunderground v.1.15,2013-10-20 09:40:00,
2013-10-20 04:45:00,41.8,38.8,29.95,SSW,196,0.0,0.0,89,0.00,,,0.00,Wunderground v.1.15,2013-10-20 09:45:00,
2013-10-20 04:50:00,41.7,38.7,29.95,SSW,197,0.0,0.0,89,0.00,,,0.00,Wunderground v.1.15,2013-10-20 09:50:00,
2013-10-20 05:00:00,41.6,38.9,29.95,SSW,196,0.0,0.0,90,0.00,,,0.00,Wunderground v.1.15,2013-10-20 10:00:00,
2013-10-20 05:10:00,41.5,38.8,29.95,SSW,197,0.0,0.0,90,0.00,,,0.00,Wunderground v.1.15,2013-10-20 10:10:00,
2013-10-20 05:20:00,41.4,38.7,29.95,SSW,196,0.0,0.0,90,0.00,,,0.00,Wunderground v.1.15,2013-10-20 10:20:00,
2013-10-20 05:25:00,41.4,38.7,29.95,SSW,196,0.0,0.0,90,0.00,,,0.00,Wunderground v.1.15,2013-10-20 10:25:00,
2013-10-20 05:30:00,41.2,38.5,29.95,SSW,197,0.0,0.0,90,0.00,,,0.00,Wunderground v.1.15,2013-10-20 10:30:00,
2013-10-20 05:35:00,41.2,38.5,29.95,SSW,196,0.0,0.0,90,0.00,,,0.00,Wunderground v.1.15,2013-10-20 10:35:00,
2013-10-20 05:40:00,41.1,38.4,29.95,SSW,196,0.0,0.0,90,0.00,,,0.00,Wunderground v.1.15,2013-10-20 10:40:00,
2013-10-20 05:45:00,41.1,38.4,29.95,SSW,196,0.0,0.0,90,0.00,,,0.00,Wunderground v.1.15,2013-10-20 10:45:00,
2013-10-20 05:50:00,41.1,38.4,29.95,SSW,196,0.0,0.0,90,0.00,,,0.00,Wunderground v.1.15,2013-10-20 10:50:00,
2013-10-20 05:55:00,40.9,38.2,29.95,SSW,196,0.0,0.0,90,0.00,,,0.00,Wunderground v.1.15,2013-10-20 10:55:00,
2013-10-20 06:00:00,40.8,38.1,29.95,SSW,196,0.0,0.0,90,0.00,,,0.00,Wunderground v.1.15,2013-10-20 11:00:00,
2013-10-20 06:10:00,40.9,38.2,29.95,SSW,196,0.0,0.0,90,0.00,,,0.00,Wunderground v.1.15,2013-10-20 11:10:00,
2013-10-20 06:15:00,40.9,38.2,29.95,SSW,196,0.0,0.0,90,0.00,,,0.00,Wunderground v.1.15,2013-10-20 11:15:00,
2013-10-20 06:20:00,40.9,38.2,29.95,SSW,196,0.0,0.0,90,0.00,,,0.00,Wunderground v.1.15,2013-10-20 11:20:00,
2013-10-20 06:30:00,40.9,38.2,29.95,SSW,196,0.0,0.0,90,0.00,,,0.00,Wunderground v.1.15,2013-10-20 11:30:00,
2013-10-20 06:35:00,40.9,38.2,29.95,SSW,196,0.0,0.0,90,0.00,,,0.00,Wunderground v.1.15,2013-10-20 11:35:00,
2013-10-20 06:40:00,40.8,38.1,29.95,SSW,196,0.0,0.0,90,0.00,,,0.00,Wunderground v.1.15,2013-10-20 11:40:00,
2013-10-20 06:45:00,40.8,38.1,29.95,SSW,196,0.0,0.0,90,0.00,,,0.00,Wunderground v.1.15,2013-10-20 11:45:00,
2013-10-20 06:50:00,40.7,38.0,29.95,SSW,196,0.0,0.0,90,0.00,,,0.00,Wunderground v.1.15,2013-10-20 11:50:00,
2013-10-20 06:55:00,40.7,38.0,29.95,SSW,196,0.0,0.0,90,0.00,,,0.00,Wunderground v.1.15,2013-10-20 11:55:00,
2013-10-20 07:00:00,40.7,38.0,29.95,SSW,196,0.0,0.0,90,0.00,,,0.00,Wunderground v.1.15,2013-10-20 12:00:00,
2013-10-20 07:10:00,40.8,38.1,29.95,SSW,196,0.0,0.0,90,0.00,,,0.00,Wunderground v.1.15,2013-10-20 12:10:00,
2013-10-20 07:15:00,40.8,38.1,29.95,SSW,196,0.0,0.0,90,0.00,,,0.00,Wunderground v.1.15,2013-10-20 12:15:00,
2013-10-20 07:20:00,40.9,38.2,29.95,SSW,196,0.0,0.0,90,0.00,,,0.00,Wunderground v.1.15,2013-10-20 12:20:00,
2013-10-20 07:25:00,40.8,38.1,29.95,SSW,196,0.0,0.0,90,0.00,,,0.00,Wunderground v.1.15,2013-10-20 12:25:00,
2013-10-20 07:30:00,40.7,38.0,29.95,SSW,196,0.0,0.0,90,0.00,,,0.00,Wunderground v.1.15,2013-10-20 12:30:00,
2013-10-20 07:35:00,40.7,38.0,29.95,SSW,196,0.0,0.0,90,0.00,,,0.00,Wunderground v.1.15,2013-10-20 12:35:00,
2013-10-20 07:45:00,40.9,38.2,29.95,SSW,196,0.0,0.0,90,0.00,,,0.00,Wunderground v.1.15,2013-10-20 12:45:00,
2013-10-20 07:50:00,41.1,38.4,29.95,SSW,196,0.0,0.0,90,0.00,,,0.00,Wunderground v.1.15,2013-10-20 12:50:00,
2013-10-20 07:55:00,41.2,38.5,29.95,SSW,196,0.0,0.0,90,0.00,,,0.00,Wunderground v.1.15,2013-10-20 12:55:00,
2013-10-20 08:00:00,41.5,38.8,29.95,SSW,196,0.0,0.0,90,0.00,,,0.00,Wunderground v.1.15,2013-10-20 13:00:00,
2013-10-20 08:10:00,41.9,39.2,29.95,SSW,196,0.0,0.0,90,0.00,,,0.00,Wunderground v.1.15,2013-10-20 13:10:00,
2013-10-20 08:15:00,42.3,39.6,29.96,SSW,196,0.0,0.0,90,0.00,,,0.00,Wunderground v.1.15,2013-10-20 13:15:00,
2013-10-20 08:20:00,42.9,40.2,29.96,SSW,196,0.0,0.0,90,0.00,,,0.00,Wunderground v.1.15,2013-10-20 13:20:00,
2013-10-20 08:25:00,43.4,40.7,29.96,SSW,196,0.0,0.0,90,0.00,,,0.00,Wunderground v.1.15,2013-10-20 13:25:00,
2013-10-20 08:30:00,43.8,40.8,29.96,SSW,196,0.0,0.0,89,0.00,,,0.00,Wunderground v.1.15,2013-10-20 13:30:00,
2013-10-20 08:35:00,44.3,41.3,29.96,SSW,196,0.0,0.0,89,0.00,,,0.00,Wunderground v.1.15,2013-10-20 13:35:00,
2013-10-20 08:45:00,45.3,42.0,29.97,South,178,1.0,1.0,88,0.00,,,0.00,Wunderground v.1.15,2013-10-20 13:45:00,
2013-10-20 08:50:00,45.8,42.2,29.97,South,172,0.0,0.0,87,0.00,,,0.00,Wunderground v.1.15,2013-10-20 13:50:00,
2013-10-20 08:55:00,46.4,42.7,29.97,South,172,0.0,0.0,87,0.00,,,0.00,Wunderground v.1.15,2013-10-20 13:55:00,
2013-10-20 09:00:00,47.0,43.0,29.97,South,172,0.0,0.0,86,0.00,,,0.00,Wunderground v.1.15,2013-10-20 14:00:00,
2013-10-20 09:10:00,48.2,43.6,29.97,South,172,0.0,0.0,84,0.00,,,0.00,Wunderground v.1.15,2013-10-20 14:10:00,
2013-10-20 09:20:00,49.1,43.2,29.97,South,183,1.0,1.0,80,0.00,,,0.00,Wunderground v.1.15,2013-10-20 14:20:00,
2013-10-20 09:25:00,49.4,43.5,29.97,South,188,1.0,1.0,80,0.00,,,0.00,Wunderground v.1.15,2013-10-20 14:25:00,
2013-10-20 09:30:00,49.7,43.1,29.97,South,182,2.0,2.0,78,0.00,,,0.00,Wunderground v.1.15,2013-10-20 14:30:00,
2013-10-20 09:35:00,50.1,43.2,29.96,SSE,153,2.0,2.0,77,0.00,,,0.00,Wunderground v.1.15,2013-10-20 14:35:00,
2013-10-20 09:40:00,50.5,43.6,29.97,SSE,158,2.0,2.0,77,0.00,,,0.00,Wunderground v.1.15,2013-10-20 14:40:00,
2013-10-20 09:45:00,51.0,44.0,29.97,SSW,194,1.0,2.0,77,0.00,,,0.00,Wunderground v.1.15,2013-10-20 14:45:00,
2013-10-20 09:55:00,52.1,44.4,29.97,South,186,1.0,4.0,75,0.00,,,0.00,Wunderground v.1.15,2013-10-20 14:55:00,
2013-10-20 10:00:00,52.5,44.4,29.97,SSE,156,1.0,2.0,74,0.00,,,0.00,Wunderground v.1.15,2013-10-20 15:00:00,
2013-10-20 10:10:00,53.6,44.8,29.97,SSW,194,1.0,4.0,72,0.00,,,0.00,Wunderground v.1.15,2013-10-20 15:10:00,
2013-10-20 10:15:00,54.0,44.8,29.96,South,175,2.0,7.0,71,0.00,,,0.00,Wunderground v.1.15,2013-10-20 15:15:00,
2013-10-20 10:20:00,54.2,44.6,29.96,South,184,3.0,5.0,70,0.00,,,0.00,Wunderground v.1.15,2013-10-20 15:20:00,
2013-10-20 10:25:00,55.2,46.0,29.96,South,183,3.0,5.0,71,0.00,,,0.00,Wunderground v.1.15,2013-10-20 15:25:00,
2013-10-20 10:30:00,55.4,45.0,29.96,South,182,2.0,2.0,68,0.00,,,0.00,Wunderground v.1.15,2013-10-20 15:30:00,
2013-10-20 10:35:00,55.9,45.1,29.96,South,190,2.0,2.0,67,0.00,,,0.00,Wunderground v.1.15,2013-10-20 15:35:00,
2013-10-20 10:40:00,56.7,45.9,29.96,South,186,1.0,3.0,67,0.00,,,0.00,Wunderground v.1.15,2013-10-20 15:40:00,
2013-10-20 10:45:00,57.1,45.4,29.96,SE,126,1.0,5.0,65,0.00,,,0.00,Wunderground v.1.15,2013-10-20 15:45:00,
2013-10-20 10:55:00,58.0,45.5,29.96,South,186,3.0,4.0,63,0.00,,,0.00,Wunderground v.1.15,2013-10-20 15:55:00,
2013-10-20 11:00:00,58.4,45.8,29.96,South,180,3.0,3.0,63,0.00,,,0.00,Wunderground v.1.15,2013-10-20 16:00:00,
2013-10-20 11:10:00,59.5,45.6,29.96,SSE,157,2.0,2.0,60,0.00,,,0.00,Wunderground v.1.15,2013-10-20 16:10:00,
2013-10-20 11:15:00,60.2,45.8,29.95,SSW,202,2.0,2.0,59,0.00,,,0.00,Wunderground v.1.15,2013-10-20 16:15:00,
2013-10-20 11:20:00,60.7,45.8,29.95,SE,146,2.0,4.0,58,0.00,,,0.00,Wunderground v.1.15,2013-10-20 16:20:00,
2013-10-20 11:25:00,60.9,45.6,29.95,SSW,195,3.0,7.0,57,0.00,,,0.00,Wunderground v.1.15,2013-10-20 16:25:00,
2013-10-20 11:30:00,61.3,46.8,29.95,South,179,3.0,3.0,59,0.00,,,0.00,Wunderground v.1.15,2013-10-20 16:30:00,
2013-10-20 11:35:00,62.3,46.9,29.94,South,191,2.0,3.0,57,0.00,,,0.00,Wunderground v.1.15,2013-10-20 16:35:00,
2013-10-20 11:40:00,63.3,46.9,29.94,SSW,198,1.0,4.0,55,0.00,,,0.00,Wunderground v.1.15,2013-10-20 16:40:00,
2013-10-20 11:45:00,63.3,45.4,29.94,SSW,194,2.0,4.0,52,0.00,,,0.00,Wunderground v.1.15,2013-10-20 16:45:00,
2013-10-20 11:55:00,63.7,44.2,29.94,SSW,194,4.0,4.0,49,0.00,,,0.00,Wunderground v.1.15,2013-10-20 16:55:00,
2013-10-20 12:00:00,64.4,45.3,29.94,ESE,123,4.0,4.0,50,0.00,,,0.00,Wunderground v.1.15,2013-10-20 17:00:00,
2013-10-20 12:10:00,65.1,46.0,29.93,SSW,211,3.0,3.0,50,0.00,,,0.00,Wunderground v.1.15,2013-10-20 17:10:00,
2013-10-20 12:20:00,65.5,44.2,29.93,SSW,203,2.0,3.0,46,0.00,,,0.00,Wunderground v.1.15,2013-10-20 17:20:00,
2013-10-20 12:25:00,65.5,44.2,29.93,SSW,194,3.0,4.0,46,0.00,,,0.00,Wunderground v.1.15,2013-10-20 17:25:00,
2013-10-20 12:30:00,65.9,45.6,29.92,SSW,202,2.0,2.0,48,0.00,,,0.00,Wunderground v.1.15,2013-10-20 17:30:00,
2013-10-20 12:35:00,66.7,45.3,29.92,SSW,199,1.0,7.0,46,0.00,,,0.00,Wunderground v.1.15,2013-10-20 17:35:00,
2013-10-20 12:40:00,66.7,42.9,29.92,SSW,195,2.0,4.0,42,0.00,,,0.00,Wunderground v.1.15,2013-10-20 17:40:00,
2013-10-20 12:45:00,66.8,42.3,29.92,South,189,4.0,4.0,41,0.00,,,0.00,Wunderground v.1.15,2013-10-20 17:45:00,
2013-10-20 12:50:00,66.9,41.8,29.92,SSW,200,5.0,6.0,40,0.00,,,0.00,Wunderground v.1.15,2013-10-20 17:50:00,
2013-10-20 12:55:00,66.8,42.3,29.92,SSW,206,5.0,6.0,41,0.00,,,0.00,Wunderground v.1.15,2013-10-20 17:55:00,
2013-10-20 13:00:00,67.0,41.2,29.92,SSW,195,5.0,7.0,39,0.00,,,0.00,Wunderground v.1.15,2013-10-20 18:00:00,
2013-10-20 13:10:00,68.0,42.8,29.91,SSW,213,2.0,3.0,40,0.00,,,0.00,Wunderground v.1.15,2013-10-20 18:10:00,
2013-10-20 13:15:00,67.3,41.5,29.90,SSW,194,4.0,6.0,39,0.00,,,0.00,Wunderground v.1.15,2013-10-20 18:15:00,
2013-10-20 13:20:00,67.7,43.1,29.90,SSW,192,4.0,6.0,41,0.00,,,0.00,Wunderground v.1.15,2013-10-20 18:20:00,
2013-10-20 13:25:00,68.4,42.5,29.89,South,169,3.0,6.0,39,0.00,,,0.00,Wunderground v.1.15,2013-10-20 18:25:00,
2013-10-20 13:30:00,68.5,42.6,29.89,SSW,193,3.0,3.0,39,0.00,,,0.00,Wunderground v.1.15,2013-10-20 18:30:00,
2013-10-20 13:35:00,68.6,43.3,29.89,SSW,207,4.0,4.0,40,0.00,,,0.00,Wunderground v.1.15,2013-10-20 18:35:00,
2013-10-20 13:45:00,68.7,42.1,29.88,SE,129,4.0,5.0,38,0.00,,,0.00,Wunderground v.1.15,2013-10-20 18:45:00,
2013-10-20 13:50:00,68.5,41.9,29.87,SE,136,4.0,7.0,38,0.00,,,0.00,Wunderground v.1.15,2013-10-20 18:50:00,
2013-10-20 13:55:00,68.9,42.9,29.87,SW,236,5.0,7.0,39,0.00,,,0.00,Wunderground v.1.15,2013-10-20 18:55:00,
2013-10-20 14:00:00,69.4,44.0,29.87,SSW,196,3.0,3.0,40,0.00,,,0.00,Wunderground v.1.15,2013-10-20 19:00:00,
2013-10-20 14:10:00,69.4,42.7,29.86,SSW,200,2.0,4.0,38,0.00,,,0.00,Wunderground v.1.15,2013-10-20 19:10:00,
2013-10-20 14:15:00,69.7,44.3,29.86,SSW,198,2.0,4.0,40,0.00,,,0.00,Wunderground v.1.15,2013-10-20 19:15:00,
2013-10-20 14:20:00,69.8,43.7,29.86,SSW,194,2.0,6.0,39,0.00,,,0.00,Wunderground v.1.15,2013-10-20 19:20:00,
2013-10-20 14:30:00,69.6,43.5,29.86,SSW,198,3.0,4.0,39,0.00,,,0.00,Wunderground v.1.15,2013-10-20 19:30:00,
2013-10-20 14:35:00,69.5,43.4,29.86,SSE,164,3.0,4.0,39,0.00,,,0.00,Wunderground v.1.15,2013-10-20 19:35:00,
2013-10-20 14:40:00,69.8,43.7,29.85,SSW,196,3.0,3.0,39,0.00,,,0.00,Wunderground v.1.15,2013-10-20 19:40:00,
2013-10-20 14:45:00,70.1,44.0,29.85,SSE,152,3.0,3.0,39,0.00,,,0.00,Wunderground v.1.15,2013-10-20 19:45:00,
2013-10-20 14:55:00,69.7,44.3,29.85,South,179,3.0,3.0,40,0.00,,,0.00,Wunderground v.1.15,2013-10-20 19:55:00,
2013-10-20 15:00:00,70.0,44.6,29.84,South,173,3.0,3.0,40,0.00,,,0.00,Wunderground v.1.15,2013-10-20 20:00:00,
2013-10-20 15:10:00,69.9,43.8,29.84,South,181,3.0,3.0,39,0.00,,,0.00,Wunderground v.1.15,2013-10-20 20:10:00,
2013-10-20 15:20:00,70.1,44.0,29.84,South,188,3.0,10.0,39,0.00,,,0.00,Wunderground v.1.15,2013-10-20 20:20:00,
2013-10-20 15:25:00,70.3,44.8,29.83,South,188,3.0,10.0,40,0.00,,,0.00,Wunderground v.1.15,2013-10-20 20:25:00,
2013-10-20 15:30:00,70.4,44.9,29.83,South,190,3.0,15.0,40,0.00,,,0.00,Wunderground v.1.15,2013-10-20 20:30:00,
2013-10-20 15:35:00,70.2,44.1,29.83,South,184,3.0,15.0,39,0.00,,,0.00,Wunderground v.1.15,2013-10-20 20:35:00,
2013-10-20 15:40:00,70.1,43.3,29.82,ESE,123,4.0,9.0,38,0.00,,,0.00,Wunderground v.1.15,2013-10-20 20:40:00,
2013-10-20 15:45:00,70.1,43.3,29.82,South,171,4.0,9.0,38,0.00,,,0.00,Wunderground v.1.15,2013-10-20 20:45:00,
2013-10-20 15:55:00,70.4,44.3,29.82,South,177,3.0,6.0,39,0.00,,,0.00,Wunderground v.1.15,2013-10-20 20:55:00,
2013-10-20 16:00:00,69.9,44.5,29.82,SSW,198,3.0,3.0,40,0.00,,,0.00,Wunderground v.1.15,2013-10-20 21:00:00,
2013-10-20 16:10:00,70.0,43.9,29.82,SSE,151,3.0,3.0,39,0.00,,,0.00,Wunderground v.1.15,2013-10-20 21:10:00,
2013-10-20 16:15:00,69.7,44.3,29.82,South,182,4.0,5.0,40,0.00,,,0.00,Wunderground v.1.15,2013-10-20 21:15:00,
2013-10-20 16:25:00,69.9,44.5,29.82,SSE,167,2.0,6.0,40,0.00,,,0.00,Wunderground v.1.15,2013-10-20 21:25:00,
2013-10-20 16:30:00,69.7,45.6,29.83,SE,126,2.0,14.0,42,0.00,,,0.00,Wunderground v.1.15,2013-10-20 21:30:00,
2013-10-20 16:35:00,69.2,45.1,29.82,South,189,2.0,14.0,42,0.00,,,0.00,Wunderground v.1.15,2013-10-20 21:35:00,
2013-10-20 16:40:00,69.3,45.2,29.82,SSW,209,2.0,2.0,42,0.00,,,0.00,Wunderground v.1.15,2013-10-20 21:40:00,
2013-10-20 16:45:00,69.2,45.1,29.82,ESE,123,2.0,3.0,42,0.00,,,0.00,Wunderground v.1.15,2013-10-20 21:45:00,
2013-10-20 16:50:00,69.2,45.7,29.82,South,177,2.0,2.0,43,0.00,,,0.00,Wunderground v.1.15,2013-10-20 21:50:00,
2013-10-20 16:55:00,69.1,44.4,29.82,SE,133,2.0,2.0,41,0.00,,,0.00,Wunderground v.1.15,2013-10-20 21:55:00,
2013-10-20 17:00:00,68.7,44.7,29.82,South,190,4.0,4.0,42,0.00,,,0.00,Wunderground v.1.15,2013-10-20 22:00:00,
2013-10-20 17:10:00,68.6,44.6,29.83,SSW,199,3.0,3.0,42,0.00,,,0.00,Wunderground v.1.15,2013-10-20 22:10:00,
2013-10-20 17:15:00,68.5,44.5,29.83,South,188,3.0,5.0,42,0.00,,,0.00,Wunderground v.1.15,2013-10-20 22:15:00,
2013-10-20 17:25:00,68.1,44.1,29.83,South,189,2.0,4.0,42,0.00,,,0.00,Wunderground v.1.15,2013-10-20 22:25:00,
2013-10-20 17:30:00,67.9,44.6,29.83,South,182,3.0,3.0,43,0.00,,,0.00,Wunderground v.1.15,2013-10-20 22:30:00,
2013-10-20 17:35:00,67.8,44.5,29.83,SE,139,2.0,4.0,43,0.00,,,0.00,Wunderground v.1.15,2013-10-20 22:35:00,
2013-10-20 17:40:00,67.6,44.3,29.83,SSE,165,2.0,2.0,43,0.00,,,0.00,Wunderground v.1.15,2013-10-20 22:40:00,
2013-10-20 17:50:00,67.2,43.9,29.83,South,176,3.0,3.0,43,0.00,,,0.00,Wunderground v.1.15,2013-10-20 22:50:00,
2013-10-20 17:55:00,66.9,44.3,29.83,South,180,3.0,4.0,44,0.00,,,0.00,Wunderground v.1.15,2013-10-20 22:55:00,
2013-10-20 18:00:00,66.7,44.1,29.83,South,179,2.0,4.0,44,0.00,,,0.00,Wunderground v.1.15,2013-10-20 23:00:00,
2013-10-20 18:10:00,66.0,43.5,29.83,SSE,167,1.0,1.0,44,0.00,,,0.00,Wunderground v.1.15,2013-10-20 23:10:00,
2013-10-20 18:15:00,65.5,44.2,29.83,South,172,1.0,1.0,46,0.00,,,0.00,Wunderground v.1.15,2013-10-20 23:15:00,
2013-10-20 18:20:00,65.1,44.4,29.83,SSW,196,0.0,0.0,47,0.00,,,0.00,Wunderground v.1.15,2013-10-20 23:20:00,
2013-10-20 18:25:00,64.7,44.0,29.83,SSW,197,0.0,0.0,47,0.00,,,0.00,Wunderground v.1.15,2013-10-20 23:25:00,
2013-10-20 18:30:00,64.3,44.2,29.83,SSW,197,0.0,0.0,48,0.00,,,0.00,Wunderground v.1.15,2013-10-20 23:30:00,
2013-10-20 18:35:00,64.1,44.0,29.83,SSW,197,0.0,0.0,48,0.00,,,0.00,Wunderground v.1.15,2013-10-20 23:35:00,
2013-10-20 18:40:00,63.6,44.1,29.83,SSW,196,0.0,0.0,49,0.00,,,0.00,Wunderground v.1.15,2013-10-20 23:40:00,
2013-10-20 18:45:00,63.2,44.2,29.83,SSW,197,0.0,0.0,50,0.00,,,0.00,Wunderground v.1.15,2013-10-20 23:45:00,
2013-10-20 18:55:00,62.1,44.3,29.84,SSW,196,0.0,0.0,52,0.00,,,0.00,Wunderground v.1.15,2013-10-20 23:55:00,
2013-10-20 19:00:00,61.7,44.4,29.84,SSW,196,0.0,0.0,53,0.00,,,0.00,Wunderground v.1.15,2013-10-21 00:00:00,
2013-10-20 19:10:00,61.1,44.3,29.84,SSW,196,0.0,0.0,54,0.00,,,0.00,Wunderground v.1.15,2013-10-21 00:10:00,
2013-10-20 19:15:00,60.9,44.1,29.84,SSW,196,0.0,0.0,54,0.00,,,0.00,Wunderground v.1.15,2013-10-21 00:15:00,
2013-10-20 19:20:00,60.7,44.4,29.84,SSW,196,0.0,0.0,55,0.00,,,0.00,Wunderground v.1.15,2013-10-21 00:20:00,
2013-10-20 19:25:00,60.4,44.2,29.85,SSW,196,0.0,0.0,55,0.00,,,0.00,Wunderground v.1.15,2013-10-21 00:25:00,
2013-10-20 19:30:00,60.2,44.0,29.85,SSW,196,0.0,0.0,55,0.00,,,0.00,Wunderground v.1.15,2013-10-21 00:30:00,
2013-10-20 19:35:00,59.9,44.2,29.85,SSW,196,0.0,0.0,56,0.00,,,0.00,Wunderground v.1.15,2013-10-21 00:35:00,
2013-10-20 19:40:00,59.7,44.0,29.86,SSW,196,0.0,0.0,56,0.00,,,0.00,Wunderground v.1.15,2013-10-21 00:40:00,
2013-10-20 19:45:00,59.4,44.2,29.86,SSW,196,0.0,0.0,57,0.00,,,0.00,Wunderground v.1.15,2013-10-21 00:45:00,
2013-10-20 19:55:00,59.0,44.2,29.87,SSW,196,0.0,0.0,58,0.00,,,0.00,Wunderground v.1.15,2013-10-21 00:55:00,
2013-10-20 20:00:00,58.5,44.7,29.87,SSW,196,0.0,0.0,60,0.00,,,0.00,Wunderground v.1.15,2013-10-21 01:00:00,
2013-10-20 20:10:00,57.5,45.0,29.88,SSW,196,0.0,0.0,63,0.00,,,0.00,Wunderground v.1.15,2013-10-21 01:10:00,
2013-10-20 20:15:00,56.9,44.8,29.88,SSW,196,0.0,0.0,64,0.00,,,0.00,Wunderground v.1.15,2013-10-21 01:15:00,
2013-10-20 20:20:00,56.5,44.5,29.88,SSW,196,0.0,0.0,64,0.00,,,0.00,Wunderground v.1.15,2013-10-21 01:20:00,
2013-10-20 20:25:00,56.3,44.3,29.88,SSW,196,0.0,0.0,64,0.00,,,0.00,Wunderground v.1.15,2013-10-21 01:25:00,
2013-10-20 20:30:00,56.3,44.7,29.88,SSW,196,0.0,0.0,65,0.00,,,0.00,Wunderground v.1.15,2013-10-21 01:30:00,
2013-10-20 20:35:00,56.2,45.0,29.88,SSW,196,0.0,0.0,66,0.00,,,0.00,Wunderground v.1.15,2013-10-21 01:35:00,
2013-10-20 20:40:00,55.9,44.7,29.89,SSW,196,0.0,0.0,66,0.00,,,0.00,Wunderground v.1.15,2013-10-21 01:40:00,
2013-10-20 20:45:00,55.6,45.2,29.89,SSW,196,0.0,0.0,68,0.00,,,0.00,Wunderground v.1.15,2013-10-21 01:45:00,
2013-10-20 20:50:00,55.0,46.1,29.89,SSW,196,0.0,0.0,72,0.00,,,0.00,Wunderground v.1.15,2013-10-21 01:50:00,
2013-10-20 20:55:00,53.9,45.4,29.90,SSW,196,0.0,0.0,73,0.00,,,0.00,Wunderground v.1.15,2013-10-21 01:55:00,
2013-10-20 21:10:00,52.1,45.8,29.90,SSW,196,0.0,0.0,79,0.00,,,0.00,Wunderground v.1.15,2013-10-21 02:10:00,
2013-10-20 21:20:00,52.4,46.1,29.90,SSW,196,0.0,0.0,79,0.00,,,0.00,Wunderground v.1.15,2013-10-21 02:20:00,
2013-10-20 21:25:00,52.7,46.4,29.90,SSW,196,0.0,0.0,79,0.00,,,0.00,Wunderground v.1.15,2013-10-21 02:25:00,
2013-10-20 21:35:00,53.2,45.8,29.91,SSW,196,0.0,0.0,76,0.00,,,0.00,Wunderground v.1.15,2013-10-21 02:35:00,
2013-10-20 21:40:00,53.4,46.0,29.91,SSW,196,0.0,0.0,76,0.00,,,0.00,Wunderground v.1.15,2013-10-21 02:40:00,
2013-10-20 21:45:00,53.6,45.9,29.91,SSW,196,0.0,0.0,75,0.00,,,0.00,Wunderground v.1.15,2013-10-21 02:45:00,
2013-10-20 21:50:00,53.8,45.7,29.91,SSW,196,0.0,0.0,74,0.00,,,0.00,Wunderground v.1.15,2013-10-21 02:50:00,
2013-10-20 21:55:00,53.7,45.6,29.91,SSW,196,0.0,0.0,74,0.00,,,0.00,Wunderground v.1.15,2013-10-21 02:55:00,
2013-10-20 22:00:00,53.6,45.5,29.91,SSW,196,0.0,0.0,74,0.00,,,0.00,Wunderground v.1.15,2013-10-21 03:00:00,
2013-10-20 22:10:00,54.4,45.9,29.91,SSW,196,0.0,0.0,73,0.00,,,0.00,Wunderground v.1.15,2013-10-21 03:10:00,
2013-10-20 22:15:00,55.1,46.2,29.91,SSW,196,0.0,0.0,72,0.00,,,0.00,Wunderground v.1.15,2013-10-21 03:15:00,
2013-10-20 22:20:00,55.8,46.5,29.91,SSW,196,0.0,0.0,71,0.00,,,0.00,Wunderground v.1.15,2013-10-21 03:20:00,
2013-10-20 22:25:00,56.5,46.8,29.91,South,189,0.0,0.0,70,0.00,,,0.00,Wunderground v.1.15,2013-10-21 03:25:00,
2013-10-20 22:35:00,57.2,47.1,29.92,South,181,0.0,0.0,69,0.00,,,0.00,Wunderground v.1.15,2013-10-21 03:35:00,
2013-10-20 22:40:00,57.3,47.2,29.92,South,181,0.0,3.0,69,0.00,,,0.00,Wunderground v.1.15,2013-10-21 03:40:00,
2013-10-20 22:45:00,57.5,47.0,29.92,South,182,0.0,3.0,68,0.00,,,0.00,Wunderground v.1.15,2013-10-21 03:45:00,
2013-10-20 22:50:00,57.6,46.7,29.92,SSW,194,1.0,1.0,67,0.00,,,0.00,Wunderground v.1.15,2013-10-21 03:50:00,
2013-10-20 22:55:00,57.9,47.0,29.92,SSW,193,1.0,1.0,67,0.00,,,0.00,Wunderground v.1.15,2013-10-21 03:55:00,
2013-10-20 23:00:00,58.0,46.7,29.92,SSE,163,1.0,1.0,66,0.00,,,0.00,Wunderground v.1.15,2013-10-21 04:00:00,
2013-10-20 23:10:00,58.0,46.7,29.92,South,180,1.0,1.0,66,0.00,,,0.00,Wunderground v.1.15,2013-10-21 04:10:00,
2013-10-20 23:15:00,57.9,47.0,29.92,South,179,0.0,1.0,67,0.00,,,0.00,Wunderground v.1.15,2013-10-21 04:15:00,
2013-10-20 23:20:00,57.7,46.8,29.92,South,178,0.0,0.0,67,0.00,,,0.00,Wunderground v.1.15,2013-10-21 04:20:00,
2013-10-20 23:25:00,57.5,46.6,29.92,South,177,0.0,0.0,67,0.00,,,0.00,Wunderground v.1.15,2013-10-21 04:25:00,
2013-10-20 23:30:00,57.4,46.5,29.91,South,178,0.0,0.0,67,0.00,,,0.00,Wunderground v.1.15,2013-10-21 04:30:00,
2013-10-20 23:35:00,57.2,46.7,29.92,South,179,0.0,0.0,68,0.00,,,0.00,Wunderground v.1.15,2013-10-21 04:35:00,
2013-10-20 23:40:00,56.9,46.4,29.92,South,179,0.0,0.0,68,0.00,,,0.00,Wunderground v.1.15,2013-10-21 04:40:00,
2013-10-20 23:45:00,56.8,46.3,29.91,South,179,0.0,0.0,68,0.00,,,0.00,Wunderground v.1.15,2013-10-21 04:45:00,
2013-10-20 23:50:00,56.6,46.5,29.91,SSE,168,0.0,0.0,69,0.00,,,0.00,Wunderground v.1.15,2013-10-21 04:50:00,
2013-10-20 23:55:00,56.5,46.4,29.91,South,169,0.0,0.0,69,0.00,,,0.00,Wunderground v.1.15,2013-10-21 04:55:00,